createdAt,value
2022-12-14T00:02:23.087Z,-4.20
2022-12-14T00:04:52.552Z,-4.20
2022-12-14T00:07:20.720Z,-4.20
2022-12-14T00:09:48.877Z,-4.20
2022-12-14T00:12:16.958Z,-4.20
2022-12-14T00:14:50.692Z,-4.20
2022-12-14T00:17:21.675Z,-4.20
2022-12-14T00:19:50.134Z,-4.20
2022-12-14T00:22:27.755Z,-4.30
2022-12-14T00:24:56.018Z,-4.30
2022-12-14T00:27:24.129Z,-4.30
2022-12-14T00:29:52.170Z,-4.30
2022-12-14T00:32:20.288Z,-4.30
2022-12-14T00:34:48.436Z,-4.30
2022-12-14T00:37:16.466Z,-4.30
2022-12-14T00:39:46.303Z,-4.30
2022-12-14T00:42:14.370Z,-4.30
2022-12-14T00:44:42.864Z,-4.30
2022-12-14T00:47:11.002Z,-4.30
2022-12-14T00:49:41.265Z,-4.40
2022-12-14T00:52:09.504Z,-4.40
2022-12-14T00:54:37.533Z,-4.40
2022-12-14T00:57:09.018Z,-4.40
2022-12-14T00:59:37.160Z,-4.40
2022-12-14T01:02:10.554Z,-4.40
2022-12-14T01:04:40.137Z,-4.50
2022-12-14T01:07:08.530Z,-4.50
2022-12-14T01:09:36.771Z,-4.50
2022-12-14T01:12:05.146Z,-4.50
2022-12-14T01:14:34.771Z,-4.60
2022-12-14T01:17:06.987Z,-4.60
2022-12-14T01:19:35.412Z,-4.70
2022-12-14T01:22:03.522Z,-4.70
2022-12-14T01:24:31.666Z,-4.70
2022-12-14T01:26:59.690Z,-4.70
2022-12-14T01:29:27.726Z,-4.80
2022-12-14T01:31:57.190Z,-4.80
2022-12-14T01:34:25.204Z,-4.80
2022-12-14T01:36:53.408Z,-4.80
2022-12-14T01:39:24.517Z,-4.80
2022-12-14T01:41:55.603Z,-4.80
2022-12-14T01:44:42.051Z,-4.80
2022-12-14T01:47:15.845Z,-4.80
2022-12-14T01:49:47.470Z,-4.80
2022-12-14T01:52:17.845Z,-4.90
2022-12-14T01:54:50.615Z,-4.80
2022-12-14T01:57:26.638Z,-4.80
2022-12-14T02:00:01.006Z,-4.90
2022-12-14T02:02:36.384Z,-4.90
2022-12-14T02:05:06.746Z,-4.90
2022-12-14T02:07:34.953Z,-4.90
2022-12-14T02:10:05.322Z,-5.00
2022-12-14T02:12:36.208Z,-5.00
2022-12-14T02:15:04.650Z,-5.00
2022-12-14T02:17:37.517Z,-5.00
2022-12-14T02:20:07.657Z,-5.00
2022-12-14T02:23:08.154Z,-5.00
2022-12-14T02:25:57.201Z,-5.00
2022-12-14T02:28:36.907Z,-5.00
2022-12-14T02:31:10.377Z,-5.00
2022-12-14T02:33:43.158Z,-5.10
2022-12-14T02:36:19.339Z,-5.00
2022-12-14T02:38:51.211Z,-5.10
2022-12-14T02:41:24.554Z,-5.20
2022-12-14T02:44:03.380Z,-5.10
2022-12-14T02:46:35.075Z,-5.20
2022-12-14T02:49:05.302Z,-5.20
2022-12-14T02:51:41.119Z,-5.20
2022-12-14T02:54:12.664Z,-5.20
2022-12-14T02:56:43.198Z,-5.30
2022-12-14T02:59:14.404Z,-5.30
2022-12-14T03:01:47.364Z,-5.30
2022-12-14T03:04:15.607Z,-5.30
2022-12-14T03:06:51.620Z,-5.40
2022-12-14T03:09:19.916Z,-5.40
2022-12-14T03:11:53.527Z,-5.40
2022-12-14T03:14:23.957Z,-5.40
2022-12-14T03:16:53.533Z,-5.40
2022-12-14T03:19:24.099Z,-5.50
2022-12-14T03:21:56.563Z,-5.50
2022-12-14T03:24:26.128Z,-5.50
2022-12-14T03:26:55.698Z,-5.60
2022-12-14T03:29:25.380Z,-5.60
2022-12-14T03:31:56.001Z,-5.60
2022-12-14T03:34:26.884Z,-5.60
2022-12-14T03:36:56.816Z,-5.70
2022-12-14T03:39:26.952Z,-5.70
2022-12-14T03:41:59.041Z,-5.70
2022-12-14T03:44:32.770Z,-5.80
2022-12-14T03:47:11.428Z,-5.80
2022-12-14T03:49:46.061Z,-5.80
2022-12-14T03:52:21.815Z,-5.80
2022-12-14T03:54:52.231Z,-5.90
2022-12-14T03:57:24.680Z,-5.90
2022-12-14T04:00:00.662Z,-5.90
2022-12-14T04:02:39.267Z,-6.00
2022-12-14T04:05:10.501Z,-6.00
2022-12-14T04:07:42.586Z,-6.00
2022-12-14T04:10:27.384Z,-6.00
2022-12-14T04:13:17.009Z,-6.10
2022-12-14T04:16:02.922Z,-6.10
2022-12-14T04:18:55.834Z,-6.10
2022-12-14T04:21:31.210Z,-6.20
2022-12-14T04:24:18.652Z,-6.20
2022-12-14T04:26:49.476Z,-6.20
2022-12-14T04:29:36.815Z,-6.20
2022-12-14T04:32:08.286Z,-6.30
2022-12-14T04:34:38.968Z,-6.30
2022-12-14T04:37:10.018Z,-6.30
2022-12-14T04:39:40.586Z,-6.30
2022-12-14T04:42:09.620Z,-6.40
2022-12-14T04:44:38.408Z,-6.40
2022-12-14T04:47:10.412Z,-6.40
2022-12-14T04:49:41.253Z,-6.40
2022-12-14T04:52:12.188Z,-6.40
2022-12-14T04:54:43.441Z,-6.40
2022-12-14T04:57:19.094Z,-6.40
2022-12-14T04:59:47.935Z,-6.40
2022-12-14T05:02:20.462Z,-6.40
2022-12-14T05:04:55.947Z,-6.40
2022-12-14T05:07:28.726Z,-6.40
2022-12-14T05:10:00.768Z,-6.40
2022-12-14T05:12:31.517Z,-6.40
2022-12-14T05:15:03.332Z,-6.40
2022-12-14T05:17:31.799Z,-6.40
2022-12-14T05:20:01.133Z,-6.40
2022-12-14T05:22:29.231Z,-6.50
2022-12-14T05:24:57.263Z,-6.40
2022-12-14T05:27:25.323Z,-6.50
2022-12-14T05:29:53.321Z,-6.40
2022-12-14T05:32:21.260Z,-6.50
2022-12-14T05:34:49.239Z,-6.50
2022-12-14T05:37:18.753Z,-6.50
2022-12-14T05:39:46.895Z,-6.50
2022-12-14T05:42:19.069Z,-6.50
2022-12-14T05:44:47.233Z,-6.50
2022-12-14T05:47:15.537Z,-6.50
2022-12-14T05:49:43.562Z,-6.50
2022-12-14T05:52:11.536Z,-6.60
2022-12-14T05:54:40.895Z,-6.60
2022-12-14T05:57:08.877Z,-6.60
2022-12-14T05:59:36.964Z,-6.60
2022-12-14T06:02:05.201Z,-6.60
2022-12-14T06:04:33.391Z,-6.60
2022-12-14T06:07:01.401Z,-6.70
2022-12-14T06:09:29.416Z,-6.70
2022-12-14T06:11:58.772Z,-6.70
2022-12-14T06:14:26.963Z,-6.70
2022-12-14T06:16:54.948Z,-6.70
2022-12-14T06:19:22.970Z,-6.80
2022-12-14T06:21:51.284Z,-6.80
2022-12-14T06:24:19.368Z,-6.80
2022-12-14T06:26:47.374Z,-6.80
2022-12-14T06:29:18.192Z,-6.80
2022-12-14T06:31:49.410Z,-6.80
2022-12-14T06:34:22.375Z,-6.90
2022-12-14T06:36:54.483Z,-6.90
2022-12-14T06:39:24.999Z,-6.90
2022-12-14T06:41:52.997Z,-6.90
2022-12-14T06:44:22.488Z,-6.80
2022-12-14T06:46:51.274Z,-6.80
2022-12-14T06:49:19.479Z,-6.80
2022-12-14T06:51:47.635Z,-6.90
2022-12-14T06:54:16.398Z,-6.90
2022-12-14T06:56:48.324Z,-6.90
2022-12-14T06:59:17.019Z,-6.90
2022-12-14T07:01:50.040Z,-6.90
2022-12-14T07:04:21.088Z,-6.90
2022-12-14T07:06:49.127Z,-6.90
2022-12-14T07:09:17.299Z,-7.00
2022-12-14T07:11:45.605Z,-7.00
2022-12-14T07:14:17.023Z,-7.00
2022-12-14T07:16:48.773Z,-7.00
2022-12-14T07:19:17.418Z,-7.00
2022-12-14T07:21:45.496Z,-7.00
2022-12-14T07:24:13.599Z,-7.00
2022-12-14T07:26:41.656Z,-7.00
2022-12-14T07:29:11.899Z,-7.00
2022-12-14T07:31:39.950Z,-7.00
2022-12-14T07:34:12.484Z,-7.00
2022-12-14T07:36:40.521Z,-7.00
2022-12-14T07:39:08.861Z,-7.00
2022-12-14T07:41:37.002Z,-7.00
2022-12-14T07:44:05.386Z,-7.10
2022-12-14T07:46:33.467Z,-7.10
2022-12-14T07:49:02.111Z,-7.10
2022-12-14T07:51:32.236Z,-7.10
2022-12-14T07:54:01.402Z,-7.10
2022-12-14T07:56:30.514Z,-7.10
2022-12-14T07:58:59.207Z,-7.10
2022-12-14T08:01:28.062Z,-7.10
2022-12-14T08:03:56.856Z,-7.10
2022-12-14T08:06:25.554Z,-7.10
2022-12-14T08:08:55.494Z,-7.10
2022-12-14T08:11:24.003Z,-7.10
2022-12-14T08:13:53.830Z,-7.10
2022-12-14T08:16:22.227Z,-7.00
2022-12-14T08:18:51.147Z,-7.00
2022-12-14T08:21:21.532Z,-7.00
2022-12-14T08:23:49.816Z,-7.00
2022-12-14T08:26:19.560Z,-7.00
2022-12-14T08:28:48.599Z,-7.00
2022-12-14T08:31:17.737Z,-7.00
2022-12-14T08:33:47.315Z,-6.90
2022-12-14T08:36:16.560Z,-6.90
2022-12-14T08:38:44.658Z,-6.90
2022-12-14T08:41:14.106Z,-6.90
2022-12-14T08:43:43.469Z,-6.80
2022-12-14T08:46:11.584Z,-6.80
2022-12-14T08:48:39.683Z,-6.80
2022-12-14T08:51:08.970Z,-6.70
2022-12-14T08:53:37.604Z,-6.70
2022-12-14T08:56:06.066Z,-6.60
2022-12-14T08:58:34.665Z,-6.70
2022-12-14T09:01:04.568Z,-6.60
2022-12-14T09:03:33.348Z,-6.60
2022-12-14T09:06:04.875Z,-6.50
2022-12-14T09:08:33.124Z,-6.50
2022-12-14T09:11:03.242Z,-6.40
2022-12-14T09:13:31.824Z,-6.40
2022-12-14T09:16:00.845Z,-6.30
2022-12-14T09:18:30.990Z,-6.30
2022-12-14T09:20:59.462Z,-6.20
2022-12-14T09:23:28.854Z,-6.20
2022-12-14T09:26:03.430Z,-6.10
2022-12-14T09:28:32.126Z,-6.10
2022-12-14T09:31:01.461Z,-6.00
2022-12-14T09:33:34.027Z,-6.00
2022-12-14T09:36:02.944Z,-5.90
2022-12-14T09:38:31.405Z,-5.90
2022-12-14T09:41:04.825Z,-5.80
2022-12-14T09:43:39.017Z,-5.80
2022-12-14T09:46:22.449Z,-5.70
2022-12-14T09:48:53.088Z,-5.60
2022-12-14T09:51:22.518Z,-5.60
2022-12-14T09:53:52.162Z,-5.50
2022-12-14T09:56:21.525Z,-5.50
2022-12-14T09:58:52.894Z,-5.40
2022-12-14T10:01:34.195Z,-5.40
2022-12-14T10:04:07.659Z,-5.30
2022-12-14T10:06:38.116Z,-5.30
2022-12-14T10:09:12.697Z,-5.20
2022-12-14T10:11:44.744Z,-5.10
2022-12-14T10:14:18.221Z,-5.10
2022-12-14T10:16:52.306Z,-5.00
2022-12-14T10:19:29.206Z,-5.00
2022-12-14T10:21:59.958Z,-4.90
2022-12-14T10:24:32.236Z,-4.80
2022-12-14T10:27:01.275Z,-4.80
2022-12-14T10:29:33.311Z,-4.70
2022-12-14T10:32:08.517Z,-4.60
2022-12-14T10:34:41.987Z,-4.60
2022-12-14T10:37:13.716Z,-4.50
2022-12-14T10:39:49.365Z,-4.50
2022-12-14T10:42:21.516Z,-4.40
2022-12-14T10:45:23.392Z,-4.30
2022-12-14T10:47:48.177Z,-4.20
2022-12-14T10:50:20.497Z,-4.20
2022-12-14T10:52:50.414Z,-4.10
2022-12-14T10:55:19.841Z,-4.00
2022-12-14T10:57:47.833Z,-4.00
2022-12-14T11:00:23.234Z,-3.90
2022-12-14T11:02:54.795Z,-3.80
2022-12-14T11:05:34.171Z,-3.70
2022-12-14T11:08:04.504Z,-3.70
2022-12-14T11:10:34.681Z,-3.60
2022-12-14T11:13:05.074Z,-3.50
2022-12-14T11:15:34.669Z,-3.40
2022-12-14T11:18:05.068Z,-3.30
2022-12-14T11:20:34.666Z,-3.30
2022-12-14T11:23:10.073Z,-3.20
2022-12-14T11:25:40.083Z,-3.10
2022-12-14T11:28:17.714Z,-3.00
2022-12-14T11:30:53.591Z,-2.90
2022-12-14T11:33:22.189Z,-2.90
2022-12-14T11:35:52.418Z,-2.80
2022-12-14T11:38:20.502Z,-2.70
2022-12-14T11:40:48.589Z,-2.60
2022-12-14T11:43:23.173Z,-2.60
2022-12-14T11:45:51.730Z,-2.40
2022-12-14T11:48:21.148Z,-2.30
2022-12-14T11:50:50.716Z,-2.10
2022-12-14T11:53:20.832Z,-2.00
2022-12-14T11:55:51.111Z,-1.80
2022-12-14T11:58:20.995Z,-1.60
2022-12-14T12:00:50.928Z,-1.40
2022-12-14T12:03:25.273Z,-1.20
2022-12-14T12:05:54.410Z,-0.90
2022-12-14T12:08:25.697Z,-0.60
2022-12-14T12:11:02.007Z,-0.30
2022-12-14T12:13:31.692Z,0.10
2022-12-14T12:16:01.648Z,0.50
2022-12-14T12:18:33.751Z,0.90
2022-12-14T12:21:04.306Z,1.50
2022-12-14T12:23:39.040Z,2.00
2022-12-14T12:26:11.409Z,2.30
2022-12-14T12:28:45.019Z,2.50
2022-12-14T12:31:22.256Z,2.80
2022-12-14T12:33:52.188Z,3.00
2022-12-14T12:36:24.232Z,3.30
2022-12-14T12:39:10.454Z,3.50
2022-12-14T12:41:46.699Z,3.60
2022-12-14T12:44:20.935Z,3.70
2022-12-14T12:47:22.936Z,3.80
2022-12-14T12:49:43.155Z,3.90
2022-12-14T12:52:16.948Z,4.00
2022-12-14T12:54:49.863Z,4.20
2022-12-14T12:57:19.877Z,4.30
2022-12-14T12:59:49.413Z,4.40
2022-12-14T13:02:31.080Z,4.40
2022-12-14T13:05:16.290Z,4.50
2022-12-14T13:07:49.520Z,4.50
2022-12-14T13:10:20.091Z,4.70
2022-12-14T13:12:51.326Z,4.70
2022-12-14T13:15:23.015Z,4.70
2022-12-14T13:17:52.651Z,4.80
2022-12-14T13:20:22.255Z,4.70
2022-12-14T13:22:50.713Z,4.70
2022-12-14T13:25:21.430Z,4.70
2022-12-14T13:28:05.092Z,4.70
2022-12-14T13:30:57.131Z,4.60
2022-12-14T13:33:36.793Z,4.60
2022-12-14T13:36:20.612Z,4.60
2022-12-14T13:39:02.558Z,4.60
2022-12-14T13:41:35.186Z,4.60
2022-12-14T13:44:18.143Z,4.60
2022-12-14T13:46:57.365Z,4.60
2022-12-14T13:49:25.778Z,4.60
2022-12-14T13:51:53.881Z,4.60
2022-12-14T13:54:27.654Z,4.60
2022-12-14T13:57:06.165Z,4.60
2022-12-14T13:59:36.413Z,4.60
2022-12-14T14:02:06.836Z,4.60
2022-12-14T14:04:36.823Z,4.50
2022-12-14T14:07:23.057Z,4.50
2022-12-14T14:10:01.684Z,4.40
2022-12-14T14:12:37.184Z,4.30
2022-12-14T14:15:24.206Z,4.20
2022-12-14T14:17:56.203Z,4.00
2022-12-14T14:20:38.895Z,3.90
2022-12-14T14:23:24.965Z,3.80
2022-12-14T14:25:56.133Z,3.70
2022-12-14T14:28:29.807Z,3.60
2022-12-14T14:30:59.683Z,3.50
2022-12-14T14:33:49.158Z,3.30
2022-12-14T14:36:21.139Z,3.20
2022-12-14T14:38:50.750Z,3.10
2022-12-14T14:41:23.652Z,2.90
2022-12-14T14:43:53.084Z,2.70
2022-12-14T14:46:32.713Z,2.50
2022-12-14T14:49:02.317Z,2.30
2022-12-14T14:51:31.441Z,2.20
2022-12-14T14:54:44.896Z,2.00
2022-12-14T14:57:26.101Z,1.80
2022-12-14T15:00:14.208Z,1.60
2022-12-14T15:02:43.071Z,1.50
2022-12-14T15:08:05.449Z,1.30
2022-12-14T15:10:35.431Z,1.20
2022-12-14T15:13:04.938Z,1.10
2022-12-14T15:15:36.956Z,0.90
2022-12-14T15:18:20.264Z,0.80
2022-12-14T15:20:54.627Z,0.70
2022-12-14T15:23:23.121Z,0.60
2022-12-14T15:25:57.150Z,0.60
2022-12-14T15:28:25.455Z,0.50
2022-12-14T15:30:56.234Z,0.40
2022-12-14T15:33:26.141Z,0.30
2022-12-14T15:35:54.518Z,0.30
2022-12-14T15:38:25.232Z,0.20
2022-12-14T15:40:57.270Z,0.10
2022-12-14T15:43:26.147Z,0.00
2022-12-14T15:46:03.146Z,0.00
2022-12-14T15:48:34.146Z,-0.10
2022-12-14T15:51:03.954Z,-0.20
2022-12-14T15:53:34.210Z,-0.30
2022-12-14T15:56:09.950Z,-0.40
2022-12-14T15:58:40.800Z,-0.40
2022-12-14T16:01:13.206Z,-0.50
2022-12-14T16:03:43.084Z,-0.60
2022-12-14T16:06:13.021Z,-0.60
2022-12-14T16:08:42.263Z,-0.70
2022-12-14T16:11:14.476Z,-0.70
2022-12-14T16:13:45.099Z,-0.80
2022-12-14T16:16:15.720Z,-0.90
2022-12-14T16:18:45.502Z,-0.90
2022-12-14T16:21:33.456Z,-1.00
2022-12-14T16:24:13.852Z,-1.10
2022-12-14T16:26:42.074Z,-1.10
2022-12-14T16:29:19.139Z,-1.20
2022-12-14T16:31:48.724Z,-1.20
2022-12-14T16:34:19.283Z,-1.30
2022-12-14T16:37:22.803Z,-1.40
2022-12-14T16:39:38.744Z,-1.40
2022-12-14T16:42:07.679Z,-1.50
2022-12-14T16:44:37.130Z,-1.60
2022-12-14T16:47:22.815Z,-1.70
2022-12-14T16:49:56.343Z,-1.70
2022-12-14T16:52:26.844Z,-1.80
2022-12-14T16:55:09.581Z,-1.90
2022-12-14T16:57:39.473Z,-1.90
2022-12-14T17:00:08.856Z,-2.00
2022-12-14T17:02:40.409Z,-2.10
2022-12-14T17:05:13.986Z,-2.10
2022-12-14T17:07:42.582Z,-2.20
2022-12-14T17:10:14.720Z,-2.30
2022-12-14T17:12:43.954Z,-2.30
2022-12-14T17:15:13.463Z,-2.40
2022-12-14T17:17:41.618Z,-2.40
2022-12-14T17:20:14.261Z,-2.50
2022-12-14T17:22:44.764Z,-2.50
2022-12-14T17:25:18.454Z,-2.60
2022-12-14T17:27:47.101Z,-2.60
2022-12-14T17:30:18.838Z,-2.70
2022-12-14T17:32:47.586Z,-2.70
2022-12-14T17:35:20.571Z,-2.70
2022-12-14T17:37:50.336Z,-2.70
2022-12-14T17:40:18.524Z,-2.70
2022-12-14T17:42:50.744Z,-2.80
2022-12-14T17:45:19.830Z,-2.80
2022-12-14T17:47:47.990Z,-2.80
2022-12-14T17:50:16.352Z,-2.90
2022-12-14T17:52:44.709Z,-3.00
2022-12-14T17:55:19.006Z,-3.10
2022-12-14T17:57:47.418Z,-3.20
2022-12-14T18:00:36.559Z,-3.20
2022-12-14T18:03:05.272Z,-3.20
2022-12-14T18:05:33.801Z,-3.20
2022-12-14T18:08:02.220Z,-3.30
2022-12-14T18:10:31.729Z,-3.30
2022-12-14T18:13:01.691Z,-3.30
2022-12-14T18:15:31.174Z,-3.40
2022-12-14T18:17:59.373Z,-3.50
2022-12-14T18:20:29.943Z,-3.50
2022-12-14T18:22:58.303Z,-3.50
2022-12-14T18:25:28.431Z,-3.50
2022-12-14T18:27:59.088Z,-3.50
2022-12-14T18:30:27.404Z,-3.60
2022-12-14T18:32:55.696Z,-3.70
2022-12-14T18:35:24.667Z,-3.70
2022-12-14T18:37:53.952Z,-3.80
2022-12-14T18:40:23.957Z,-3.80
2022-12-14T18:42:52.111Z,-3.80
2022-12-14T18:45:23.165Z,-3.80
2022-12-14T18:47:52.349Z,-3.80
2022-12-14T18:50:20.829Z,-3.80
2022-12-14T18:52:48.930Z,-3.80
2022-12-14T18:55:18.286Z,-3.80
2022-12-14T18:57:47.519Z,-3.80
2022-12-14T19:00:17.311Z,-3.80
2022-12-14T19:02:49.748Z,-3.80
2022-12-14T19:05:23.244Z,-3.80
2022-12-14T19:07:54.091Z,-3.80
2022-12-14T19:10:23.937Z,-3.80
2022-12-14T19:12:52.300Z,-3.80
2022-12-14T19:15:21.233Z,-3.80
2022-12-14T19:17:50.890Z,-3.80
2022-12-14T19:20:19.691Z,-3.70
2022-12-14T19:22:48.277Z,-3.80
2022-12-14T19:25:16.889Z,-3.80
2022-12-14T19:28:20.322Z,-3.80
2022-12-14T19:30:34.657Z,-3.80
2022-12-14T19:33:04.226Z,-3.80
2022-12-14T19:35:32.911Z,-3.90
2022-12-14T19:38:00.957Z,-3.90
2022-12-14T19:40:29.252Z,-4.00
2022-12-14T19:42:57.298Z,-4.20
2022-12-14T19:45:25.337Z,-4.20
2022-12-14T19:47:53.319Z,-4.20
2022-12-14T19:50:22.814Z,-4.30
2022-12-14T19:52:52.526Z,-4.30
2022-12-14T19:55:20.576Z,-4.30
2022-12-14T19:57:48.781Z,-4.30
2022-12-14T20:00:17.051Z,-4.40
2022-12-14T20:02:45.335Z,-4.40
2022-12-14T20:05:18.089Z,-4.40
2022-12-14T20:07:47.581Z,-4.40
2022-12-14T20:10:15.578Z,-4.40
2022-12-14T20:12:44.004Z,-4.40
2022-12-14T20:15:13.069Z,-4.40
2022-12-14T20:17:41.224Z,-4.40
2022-12-14T20:20:10.043Z,-4.50
2022-12-14T20:22:38.163Z,-4.50
2022-12-14T20:25:07.918Z,-4.60
2022-12-14T20:27:40.505Z,-4.60
2022-12-14T20:30:09.781Z,-4.60
2022-12-14T20:32:37.826Z,-4.60
2022-12-14T20:35:06.503Z,-4.60
2022-12-14T20:37:34.777Z,-4.60
2022-12-14T20:40:03.101Z,-4.60
2022-12-14T20:42:32.568Z,-4.60
2022-12-14T20:45:06.646Z,-4.70
2022-12-14T20:47:35.253Z,-4.80
2022-12-14T20:50:03.334Z,-4.80
2022-12-14T20:52:31.335Z,-4.80
2022-12-14T20:54:59.437Z,-4.80
2022-12-14T20:57:28.388Z,-4.90
2022-12-14T20:59:59.522Z,-4.90
2022-12-14T21:02:27.794Z,-4.90
2022-12-14T21:04:56.118Z,-4.90
2022-12-14T21:07:26.277Z,-4.90
2022-12-14T21:09:54.944Z,-4.90
2022-12-14T21:12:22.188Z,-4.90
2022-12-14T21:14:52.180Z,-4.90
2022-12-14T21:17:22.137Z,-4.90
2022-12-14T21:19:50.846Z,-4.90
2022-12-14T21:22:19.716Z,-5.00
2022-12-14T21:25:06.970Z,-5.00
2022-12-14T21:27:35.947Z,-4.90
2022-12-14T21:30:04.237Z,-5.00
2022-12-14T21:32:35.899Z,-5.00
2022-12-14T21:35:04.561Z,-5.10
2022-12-14T21:37:32.669Z,-5.10
2022-12-14T21:40:03.443Z,-5.10
2022-12-14T21:42:30.611Z,-5.10
2022-12-14T21:44:58.832Z,-5.10
2022-12-14T21:47:27.974Z,-5.10
2022-12-14T21:49:57.648Z,-5.10
2022-12-14T21:52:27.126Z,-5.20
2022-12-14T21:54:55.174Z,-5.20
2022-12-14T21:57:42.052Z,-5.20
2022-12-14T22:00:11.190Z,-5.20
2022-12-14T22:02:40.156Z,-5.20
2022-12-14T22:05:10.205Z,-5.20
2022-12-14T22:07:38.212Z,-5.20
2022-12-14T22:10:06.736Z,-5.20
2022-12-14T22:12:34.875Z,-5.20
2022-12-14T22:15:02.979Z,-5.30
2022-12-14T22:17:31.056Z,-5.30
2022-12-14T22:19:59.440Z,-5.30
2022-12-14T22:22:28.885Z,-5.30
2022-12-14T22:24:57.123Z,-5.30
2022-12-14T22:27:25.134Z,-5.20
2022-12-14T22:29:53.204Z,-5.20
2022-12-14T22:32:21.337Z,-5.20
2022-12-14T22:34:49.361Z,-5.10
2022-12-14T22:37:17.681Z,-5.10
2022-12-14T22:39:48.127Z,-5.00
2022-12-14T22:42:16.559Z,-5.00
2022-12-14T22:44:45.043Z,-5.00
2022-12-14T22:47:13.134Z,-4.90
2022-12-14T22:49:41.219Z,-4.90
2022-12-14T22:52:09.303Z,-4.80
2022-12-14T22:54:38.910Z,-4.80
2022-12-14T22:57:10.533Z,-4.80
2022-12-14T22:59:39.807Z,-4.70
2022-12-14T23:02:07.957Z,-4.70
2022-12-14T23:04:37.073Z,-4.80
2022-12-14T23:07:05.211Z,-4.80
2022-12-14T23:09:50.792Z,-4.80
2022-12-14T23:12:37.863Z,-4.80
2022-12-14T23:15:24.110Z,-4.80
2022-12-14T23:18:12.670Z,-4.80
2022-12-14T23:20:58.255Z,-4.80
2022-12-14T23:23:43.758Z,-4.90
2022-12-14T23:26:29.418Z,-4.90
2022-12-14T23:29:16.774Z,-4.90
2022-12-14T23:32:02.162Z,-4.90
2022-12-14T23:34:47.927Z,-5.00
2022-12-14T23:37:33.808Z,-5.00
2022-12-14T23:40:19.337Z,-5.00
2022-12-14T23:43:04.799Z,-5.00
2022-12-14T23:45:51.986Z,-5.00
2022-12-14T23:48:37.554Z,-5.10
2022-12-14T23:51:23.336Z,-5.10
2022-12-14T23:54:09.206Z,-5.10
2022-12-14T23:56:54.807Z,-5.00
2022-12-14T23:59:40.549Z,-5.10
